EWG3PU EDDK-LGTS
Flight info
| Callsign | EWG3PU |
|---|---|
| Flight time | 2h 10m |
| Altitude | FL390 |
| Route | KUMIK L603 TESGA ESATI BARSU EXITI LAMSI NIDLO VABEK UL603 OLOTA SKJ ERANA UT389 ALIKO N130 TSL G12 ARNAS ARNA1P |
| Aircraft | A20N |
Departure
| Time | 2026-04-22 07:55 |
|---|---|
| Airport | Cologne Bonn Airport (EDDK) |
Arrival
| Time | 2026-04-22 10:05 |
|---|---|
| Airport | Thessaloniki Macedonia International Airport (LGTS) |
| Time | Latitude | Longitude | Altitude | Speed | Heading |
|---|---|---|---|---|---|
| 2026-04-22 07:26 | 50.87788 | 7.12420 | 228 ft | 0 kts | 288° |
| 2026-04-22 07:27 | 50.87702 | 7.12385 | 228 ft | 0 kts | 288° |
| 2026-04-22 07:28 | 50.87661 | 7.12352 | 228 ft | 0 kts | 333° |
| 2026-04-22 07:46 | 50.87648 | 7.12362 | 228 ft | 2 kts | 333° |
| 2026-04-22 07:47 | 50.87634 | 7.12373 | 228 ft | 2 kts | 321° |
| 2026-04-22 07:47 | 50.87627 | 7.12390 | 227 ft | 2 kts | 282° |
| 2026-04-22 07:47 | 50.87625 | 7.12412 | 227 ft | 2 kts | 290° |
| 2026-04-22 07:47 | 50.87619 | 7.12434 | 227 ft | 2 kts | 289° |
| 2026-04-22 07:48 | 50.87614 | 7.12457 | 227 ft | 2 kts | 302° |
| 2026-04-22 07:48 | 50.87605 | 7.12471 | 227 ft | 2 kts | 342° |
| 2026-04-22 07:48 | 50.87594 | 7.12473 | 227 ft | 0 kts | 13° |
| 2026-04-22 07:48 | 50.87587 | 7.12468 | 226 ft | 1 kts | 18° |
| 2026-04-22 07:49 | 50.87585 | 7.12468 | 226 ft | 0 kts | 18° |
| 2026-04-22 07:51 | 50.87587 | 7.12469 | 226 ft | 1 kts | 17° |
| 2026-04-22 07:51 | 50.87598 | 7.12472 | 227 ft | 3 kts | 13° |
| 2026-04-22 07:51 | 50.87632 | 7.12486 | 228 ft | 6 kts | 15° |
| 2026-04-22 07:51 | 50.87675 | 7.12507 | 228 ft | 7 kts | 18° |
| 2026-04-22 07:52 | 50.87725 | 7.12533 | 229 ft | 8 kts | 18° |
| 2026-04-22 07:52 | 50.87783 | 7.12563 | 229 ft | 9 kts | 18° |
| 2026-04-22 07:52 | 50.87847 | 7.12598 | 229 ft | 10 kts | 19° |
| 2026-04-22 07:52 | 50.87918 | 7.12635 | 230 ft | 10 kts | 19° |
| 2026-04-22 07:53 | 50.87969 | 7.12686 | 231 ft | 8 kts | 50° |
| 2026-04-22 07:53 | 50.87994 | 7.12758 | 233 ft | 8 kts | 70° |
| 2026-04-22 07:53 | 50.88009 | 7.12840 | 236 ft | 7 kts | 74° |
| 2026-04-22 07:53 | 50.88024 | 7.12894 | 237 ft | 4 kts | 57° |
| 2026-04-22 07:54 | 50.88026 | 7.12938 | 238 ft | 6 kts | 126° |
| 2026-04-22 07:54 | 50.87848 | 7.13198 | 239 ft | 71 kts | 136° |
| 2026-04-22 07:54 | 50.87310 | 7.13977 | 246 ft | 135 kts | 137° |
| 2026-04-22 07:54 | 50.86499 | 7.15137 | 516 ft | 163 kts | 134° |
| 2026-04-22 07:55 | 50.85661 | 7.16365 | 1105 ft | 167 kts | 134° |
| 2026-04-22 07:55 | 50.84784 | 7.17623 | 1698 ft | 177 kts | 135° |
| 2026-04-22 07:55 | 50.83819 | 7.18965 | 2193 ft | 193 kts | 135° |
| 2026-04-22 07:55 | 50.82756 | 7.20425 | 2708 ft | 210 kts | 135° |
| 2026-04-22 07:56 | 50.81691 | 7.22137 | 3347 ft | 220 kts | 123° |
| 2026-04-22 07:56 | 50.80907 | 7.24153 | 4335 ft | 215 kts | 112° |
| 2026-04-22 07:56 | 50.80416 | 7.26475 | 4975 ft | 227 kts | 99° |
| 2026-04-22 07:56 | 50.80288 | 7.29068 | 5517 ft | 245 kts | 88° |
| 2026-04-22 07:57 | 50.80388 | 7.31856 | 6267 ft | 254 kts | 85° |
| 2026-04-22 07:57 | 50.80529 | 7.34676 | 7157 ft | 257 kts | 85° |
| 2026-04-22 07:57 | 50.80672 | 7.37548 | 8033 ft | 261 kts | 85° |
| 2026-04-22 07:57 | 50.80812 | 7.40454 | 8881 ft | 264 kts | 85° |
| 2026-04-22 07:58 | 50.80950 | 7.43414 | 9724 ft | 268 kts | 85° |
| 2026-04-22 07:58 | 50.81086 | 7.46425 | 10581 ft | 270 kts | 84° |
| 2026-04-22 07:58 | 50.81223 | 7.49492 | 11228 ft | 280 kts | 84° |
| 2026-04-22 07:58 | 50.81364 | 7.52654 | 11933 ft | 286 kts | 84° |
| 2026-04-22 07:59 | 50.81503 | 7.55799 | 12746 ft | 288 kts | 84° |
| 2026-04-22 07:59 | 50.81644 | 7.59007 | 13524 ft | 290 kts | 84° |
| 2026-04-22 07:59 | 50.81786 | 7.62243 | 13994 ft | 293 kts | 84° |
| 2026-04-22 07:59 | 50.81927 | 7.65500 | 14237 ft | 293 kts | 85° |
| 2026-04-22 08:00 | 50.82067 | 7.68801 | 14581 ft | 300 kts | 85° |
| 2026-04-22 08:00 | 50.82206 | 7.72074 | 15403 ft | 299 kts | 85° |
| 2026-04-22 08:00 | 50.82344 | 7.75372 | 16178 ft | 300 kts | 85° |
| 2026-04-22 08:00 | 50.82484 | 7.78697 | 16876 ft | 303 kts | 85° |
| 2026-04-22 08:01 | 50.82623 | 7.82053 | 17549 ft | 306 kts | 85° |
| 2026-04-22 08:01 | 50.82763 | 7.85430 | 18225 ft | 308 kts | 85° |
| 2026-04-22 08:01 | 50.82903 | 7.88850 | 18878 ft | 311 kts | 85° |
| 2026-04-22 08:01 | 50.83044 | 7.92312 | 19519 ft | 314 kts | 85° |
| 2026-04-22 08:02 | 50.83184 | 7.95802 | 20147 ft | 316 kts | 85° |
| 2026-04-22 08:02 | 50.83322 | 7.99272 | 20756 ft | 319 kts | 85° |
| 2026-04-22 08:02 | 50.83460 | 8.02803 | 21361 ft | 321 kts | 86° |
| 2026-04-22 08:02 | 50.83293 | 8.06364 | 21928 ft | 327 kts | 100° |
| 2026-04-22 08:03 | 50.82535 | 8.09788 | 22487 ft | 334 kts | 114° |
| 2026-04-22 08:03 | 50.81312 | 8.12963 | 23058 ft | 338 kts | 119° |
| 2026-04-22 08:03 | 50.79982 | 8.16106 | 23606 ft | 341 kts | 120° |
| 2026-04-22 08:03 | 50.78641 | 8.19246 | 24126 ft | 344 kts | 119° |
| 2026-04-22 08:04 | 50.77302 | 8.22395 | 24632 ft | 346 kts | 119° |
| 2026-04-22 08:04 | 50.75935 | 8.25618 | 25096 ft | 350 kts | 119° |
| 2026-04-22 08:04 | 50.74571 | 8.28838 | 25542 ft | 354 kts | 120° |
| 2026-04-22 08:04 | 50.73212 | 8.32041 | 25960 ft | 357 kts | 120° |
| 2026-04-22 08:05 | 50.71823 | 8.35313 | 26386 ft | 361 kts | 120° |
| 2026-04-22 08:05 | 50.70309 | 8.38551 | 26779 ft | 368 kts | 127° |
| 2026-04-22 08:05 | 50.68587 | 8.41167 | 27134 ft | 376 kts | 137° |
| 2026-04-22 08:05 | 50.66418 | 8.43465 | 27540 ft | 383 kts | 146° |
| 2026-04-22 08:06 | 50.63992 | 8.45550 | 27980 ft | 386 kts | 147° |
| 2026-04-22 08:06 | 50.61579 | 8.47550 | 28363 ft | 389 kts | 147° |
| 2026-04-22 08:06 | 50.59149 | 8.49570 | 28736 ft | 393 kts | 147° |
| 2026-04-22 08:06 | 50.56758 | 8.51569 | 29100 ft | 395 kts | 147° |
| 2026-04-22 08:07 | 50.54241 | 8.53682 | 29468 ft | 398 kts | 147° |
| 2026-04-22 08:07 | 50.51747 | 8.55780 | 29816 ft | 401 kts | 147° |
| 2026-04-22 08:07 | 50.49215 | 8.57910 | 30159 ft | 404 kts | 147° |
| 2026-04-22 08:07 | 50.46706 | 8.60215 | 30486 ft | 406 kts | 143° |
| 2026-04-22 08:08 | 50.44306 | 8.62795 | 30806 ft | 407 kts | 139° |
| 2026-04-22 08:08 | 50.42026 | 8.65659 | 31110 ft | 408 kts | 135° |
| 2026-04-22 08:08 | 50.39892 | 8.68762 | 31407 ft | 410 kts | 133° |
| 2026-04-22 08:08 | 50.37761 | 8.72001 | 31704 ft | 414 kts | 133° |
| 2026-04-22 08:09 | 50.35621 | 8.75249 | 31989 ft | 417 kts | 133° |
| 2026-04-22 08:09 | 50.33467 | 8.78506 | 32267 ft | 420 kts | 133° |
| 2026-04-22 08:09 | 50.31285 | 8.81796 | 32547 ft | 422 kts | 133° |
| 2026-04-22 08:09 | 50.29092 | 8.85091 | 32807 ft | 425 kts | 133° |
| 2026-04-22 08:10 | 50.26879 | 8.88408 | 33057 ft | 428 kts | 133° |
| 2026-04-22 08:10 | 50.24653 | 8.91739 | 33303 ft | 431 kts | 133° |
| 2026-04-22 08:10 | 50.22412 | 8.95087 | 33545 ft | 433 kts | 133° |
| 2026-04-22 08:10 | 50.20149 | 8.98464 | 33775 ft | 436 kts | 133° |
| 2026-04-22 08:11 | 50.17868 | 9.01862 | 33998 ft | 438 kts | 133° |
| 2026-04-22 08:11 | 50.15576 | 9.05272 | 34219 ft | 441 kts | 133° |
| 2026-04-22 08:11 | 50.13266 | 9.08707 | 34440 ft | 442 kts | 133° |
| 2026-04-22 08:11 | 50.11072 | 9.12317 | 34667 ft | 442 kts | 127° |
| 2026-04-22 08:12 | 50.09156 | 9.16224 | 34859 ft | 441 kts | 121° |
| 2026-04-22 08:12 | 50.07520 | 9.20446 | 35035 ft | 441 kts | 114° |
| 2026-04-22 08:12 | 50.06191 | 9.24934 | 35198 ft | 440 kts | 108° |
| 2026-04-22 08:12 | 50.05187 | 9.29626 | 35319 ft | 441 kts | 102° |
| 2026-04-22 08:13 | 50.04505 | 9.34463 | 35496 ft | 441 kts | 97° |
| 2026-04-22 08:13 | 50.03953 | 9.39304 | 35731 ft | 440 kts | 97° |
| 2026-04-22 08:13 | 50.03414 | 9.44152 | 35948 ft | 441 kts | 97° |
| 2026-04-22 08:13 | 50.02873 | 9.48991 | 36138 ft | 442 kts | 97° |
| 2026-04-22 08:14 | 50.02320 | 9.53872 | 36319 ft | 442 kts | 97° |
| 2026-04-22 08:14 | 50.01769 | 9.58688 | 36496 ft | 443 kts | 97° |
| 2026-04-22 08:14 | 50.01211 | 9.63517 | 36670 ft | 444 kts | 97° |
| 2026-04-22 08:14 | 50.00645 | 9.68393 | 36835 ft | 445 kts | 98° |
| 2026-04-22 08:15 | 50.00079 | 9.73252 | 36989 ft | 446 kts | 98° |
| 2026-04-22 08:15 | 49.99513 | 9.78094 | 37136 ft | 447 kts | 98° |
| 2026-04-22 08:15 | 49.98940 | 9.82962 | 37280 ft | 448 kts | 98° |
| 2026-04-22 08:15 | 49.98359 | 9.87878 | 37438 ft | 448 kts | 98° |
| 2026-04-22 08:16 | 49.97777 | 9.92778 | 37633 ft | 447 kts | 98° |
| 2026-04-22 08:16 | 49.97195 | 9.97661 | 37807 ft | 447 kts | 98° |
| 2026-04-22 08:16 | 49.96609 | 10.02553 | 37919 ft | 449 kts | 98° |
| 2026-04-22 08:16 | 49.96017 | 10.07487 | 38020 ft | 450 kts | 98° |
| 2026-04-22 08:17 | 49.95425 | 10.12399 | 38135 ft | 451 kts | 98° |
| 2026-04-22 08:17 | 49.94831 | 10.17302 | 38261 ft | 451 kts | 98° |
| 2026-04-22 08:17 | 49.94227 | 10.22267 | 38386 ft | 452 kts | 98° |
| 2026-04-22 08:17 | 49.93624 | 10.27163 | 38501 ft | 453 kts | 99° |
| 2026-04-22 08:18 | 49.92906 | 10.31990 | 38610 ft | 455 kts | 102° |
| 2026-04-22 08:18 | 49.92003 | 10.36765 | 38717 ft | 456 kts | 105° |
| 2026-04-22 08:18 | 49.89609 | 10.46151 | 38904 ft | 460 kts | 113° |
| 2026-04-22 08:19 | 49.86524 | 10.55202 | 39074 ft | 463 kts | 116° |
| 2026-04-22 08:19 | 49.83367 | 10.64145 | 39272 ft | 463 kts | 116° |
| 2026-04-22 08:20 | 49.80245 | 10.73058 | 39306 ft | 465 kts | 116° |
| 2026-04-22 08:20 | 49.77107 | 10.82013 | 39309 ft | 466 kts | 116° |
| 2026-04-22 08:21 | 49.73937 | 10.91027 | 39308 ft | 466 kts | 116° |
| 2026-04-22 08:21 | 49.70769 | 10.99999 | 39308 ft | 466 kts | 117° |
| 2026-04-22 08:22 | 49.67590 | 11.08966 | 39306 ft | 465 kts | 117° |
| 2026-04-22 08:22 | 49.64392 | 11.17960 | 39306 ft | 466 kts | 117° |
| 2026-04-22 08:23 | 49.61184 | 11.26953 | 39304 ft | 465 kts | 116° |
| 2026-04-22 08:23 | 49.57976 | 11.35908 | 39303 ft | 465 kts | 116° |
| 2026-04-22 08:24 | 49.54684 | 11.44630 | 39302 ft | 466 kts | 119° |
| 2026-04-22 08:24 | 49.51183 | 11.53315 | 39299 ft | 465 kts | 120° |
| 2026-04-22 08:25 | 49.47683 | 11.61974 | 39296 ft | 465 kts | 119° |
| 2026-04-22 08:25 | 49.44257 | 11.70447 | 39293 ft | 465 kts | 120° |
| 2026-04-22 08:26 | 49.40778 | 11.79040 | 39292 ft | 465 kts | 120° |
| 2026-04-22 08:26 | 49.37275 | 11.87648 | 39292 ft | 465 kts | 120° |
| 2026-04-22 08:27 | 49.33771 | 11.96224 | 39294 ft | 465 kts | 120° |
| 2026-04-22 08:27 | 49.30249 | 12.04813 | 39295 ft | 465 kts | 120° |
| 2026-04-22 08:28 | 49.26718 | 12.13398 | 39294 ft | 466 kts | 120° |
| 2026-04-22 08:28 | 49.23185 | 12.21958 | 39295 ft | 466 kts | 120° |
| 2026-04-22 08:29 | 49.19644 | 12.30512 | 39295 ft | 466 kts | 120° |
| 2026-04-22 08:29 | 49.16058 | 12.39144 | 39295 ft | 467 kts | 121° |
| 2026-04-22 08:30 | 49.12481 | 12.47725 | 39294 ft | 467 kts | 121° |
| 2026-04-22 08:30 | 49.08884 | 12.56327 | 39295 ft | 468 kts | 121° |
| 2026-04-22 08:31 | 49.05330 | 12.64802 | 39296 ft | 468 kts | 121° |
| 2026-04-22 08:32 | 49.00061 | 12.77351 | 39293 ft | 467 kts | 121° |
| 2026-04-22 08:32 | 48.96511 | 12.85758 | 39293 ft | 468 kts | 121° |
| 2026-04-22 08:33 | 48.92891 | 12.94297 | 39291 ft | 468 kts | 121° |
| 2026-04-22 08:33 | 48.89266 | 13.02812 | 39289 ft | 468 kts | 122° |
| 2026-04-22 08:34 | 48.85691 | 13.11120 | 39290 ft | 468 kts | 122° |
| 2026-04-22 08:34 | 48.82108 | 13.19458 | 39287 ft | 468 kts | 122° |
| 2026-04-22 08:35 | 48.78521 | 13.27808 | 39285 ft | 468 kts | 122° |
| 2026-04-22 08:35 | 48.74953 | 13.36099 | 39283 ft | 468 kts | 122° |
| 2026-04-22 08:36 | 48.71378 | 13.44380 | 39280 ft | 468 kts | 122° |
| 2026-04-22 08:36 | 48.67748 | 13.52597 | 39280 ft | 469 kts | 124° |
| 2026-04-22 08:37 | 48.63760 | 13.60017 | 39278 ft | 470 kts | 131° |
| 2026-04-22 08:37 | 48.59014 | 13.66988 | 39278 ft | 471 kts | 138° |
| 2026-04-22 08:38 | 48.54114 | 13.73655 | 39279 ft | 471 kts | 138° |
| 2026-04-22 08:38 | 48.49198 | 13.80334 | 39279 ft | 471 kts | 138° |
| 2026-04-22 08:39 | 48.44317 | 13.86954 | 39279 ft | 471 kts | 138° |
| 2026-04-22 08:39 | 48.39391 | 13.93619 | 39279 ft | 472 kts | 138° |
| 2026-04-22 08:40 | 48.34473 | 14.00256 | 39279 ft | 472 kts | 138° |
| 2026-04-22 08:40 | 48.29470 | 14.06989 | 39279 ft | 472 kts | 138° |
| 2026-04-22 08:41 | 48.24462 | 14.13709 | 39279 ft | 473 kts | 138° |
| 2026-04-22 08:41 | 48.19446 | 14.20423 | 39279 ft | 473 kts | 138° |
| 2026-04-22 08:42 | 48.14408 | 14.27148 | 39279 ft | 473 kts | 138° |
| 2026-04-22 08:42 | 48.09345 | 14.33887 | 39279 ft | 473 kts | 138° |
| 2026-04-22 08:43 | 48.04323 | 14.40553 | 39278 ft | 471 kts | 138° |
| 2026-04-22 08:43 | 47.99335 | 14.47157 | 39273 ft | 471 kts | 138° |
| 2026-04-22 08:44 | 47.94296 | 14.53817 | 39272 ft | 474 kts | 139° |
| 2026-04-22 08:44 | 47.89218 | 14.60501 | 39267 ft | 474 kts | 139° |
| 2026-04-22 08:45 | 47.84195 | 14.67061 | 39262 ft | 473 kts | 139° |
| 2026-04-22 08:45 | 47.79231 | 14.73570 | 39258 ft | 474 kts | 139° |
| 2026-04-22 08:46 | 47.74261 | 14.80071 | 39252 ft | 473 kts | 139° |
| 2026-04-22 08:46 | 47.69292 | 14.86549 | 39247 ft | 474 kts | 139° |
| 2026-04-22 08:47 | 47.64299 | 14.93037 | 39243 ft | 475 kts | 140° |
| 2026-04-22 08:47 | 47.59208 | 14.99634 | 39238 ft | 475 kts | 140° |
| 2026-04-22 08:48 | 47.54161 | 15.06156 | 39235 ft | 475 kts | 140° |
| 2026-04-22 08:48 | 47.49148 | 15.12616 | 39233 ft | 474 kts | 140° |
| 2026-04-22 08:49 | 47.44113 | 15.19090 | 39231 ft | 474 kts | 140° |
| 2026-04-22 08:49 | 47.39089 | 15.25531 | 39230 ft | 474 kts | 140° |
| 2026-04-22 08:50 | 47.34059 | 15.31964 | 39229 ft | 475 kts | 140° |
| 2026-04-22 08:50 | 47.29028 | 15.38382 | 39228 ft | 475 kts | 140° |
| 2026-04-22 08:51 | 47.23966 | 15.44822 | 39228 ft | 475 kts | 140° |
| 2026-04-22 08:51 | 47.18913 | 15.51235 | 39227 ft | 474 kts | 140° |
| 2026-04-22 08:52 | 47.13738 | 15.57785 | 39225 ft | 475 kts | 140° |
| 2026-04-22 08:52 | 47.08604 | 15.64265 | 39225 ft | 475 kts | 140° |
| 2026-04-22 08:53 | 47.03560 | 15.70639 | 39224 ft | 475 kts | 141° |
| 2026-04-22 08:53 | 46.98486 | 15.77031 | 39224 ft | 475 kts | 141° |
| 2026-04-22 08:54 | 46.93318 | 15.83508 | 39222 ft | 475 kts | 141° |
| 2026-04-22 08:54 | 46.88150 | 15.89955 | 39219 ft | 475 kts | 141° |
| 2026-04-22 08:55 | 46.83054 | 15.96273 | 39217 ft | 476 kts | 141° |
| 2026-04-22 08:55 | 46.77945 | 16.02826 | 39215 ft | 477 kts | 139° |
| 2026-04-22 08:56 | 46.72894 | 16.09542 | 39211 ft | 477 kts | 139° |
| 2026-04-22 08:56 | 46.67859 | 16.16230 | 39209 ft | 477 kts | 139° |
| 2026-04-22 08:57 | 46.62825 | 16.22893 | 39207 ft | 477 kts | 139° |
| 2026-04-22 08:57 | 46.57774 | 16.29565 | 39205 ft | 477 kts | 140° |
| 2026-04-22 08:58 | 46.52703 | 16.36243 | 39204 ft | 478 kts | 140° |
| 2026-04-22 08:58 | 46.47639 | 16.42894 | 39204 ft | 477 kts | 140° |
| 2026-04-22 08:59 | 46.42560 | 16.49548 | 39202 ft | 477 kts | 140° |
| 2026-04-22 08:59 | 46.37441 | 16.56238 | 39200 ft | 477 kts | 140° |
| 2026-04-22 09:00 | 46.32323 | 16.62907 | 39199 ft | 477 kts | 140° |
| 2026-04-22 09:00 | 46.27215 | 16.69564 | 39198 ft | 477 kts | 140° |
| 2026-04-22 09:01 | 46.22113 | 16.76206 | 39198 ft | 477 kts | 140° |
| 2026-04-22 09:01 | 46.16987 | 16.82844 | 39198 ft | 477 kts | 140° |
| 2026-04-22 09:02 | 46.11872 | 16.89445 | 39198 ft | 477 kts | 140° |
| 2026-04-22 09:02 | 46.06758 | 16.96025 | 39198 ft | 476 kts | 140° |
| 2026-04-22 09:03 | 46.01626 | 17.02608 | 39198 ft | 476 kts | 140° |
| 2026-04-22 09:03 | 45.96517 | 17.09154 | 39198 ft | 477 kts | 141° |
| 2026-04-22 09:04 | 45.91452 | 17.15617 | 39199 ft | 477 kts | 141° |
| 2026-04-22 09:04 | 45.86391 | 17.22038 | 39196 ft | 477 kts | 141° |
| 2026-04-22 09:05 | 45.81274 | 17.28502 | 39192 ft | 476 kts | 141° |
| 2026-04-22 09:05 | 45.76255 | 17.34847 | 39189 ft | 476 kts | 141° |
| 2026-04-22 09:06 | 45.71138 | 17.41309 | 39186 ft | 477 kts | 141° |
| 2026-04-22 09:06 | 45.65997 | 17.47788 | 39184 ft | 477 kts | 141° |
| 2026-04-22 09:07 | 45.60866 | 17.54238 | 39183 ft | 477 kts | 141° |
| 2026-04-22 09:07 | 45.55742 | 17.60663 | 39182 ft | 477 kts | 141° |
| 2026-04-22 09:08 | 45.50606 | 17.67093 | 39181 ft | 478 kts | 141° |
| 2026-04-22 09:08 | 45.45473 | 17.73531 | 39183 ft | 477 kts | 141° |
| 2026-04-22 09:09 | 45.40362 | 17.79909 | 39182 ft | 476 kts | 142° |
| 2026-04-22 09:09 | 45.35232 | 17.86283 | 39182 ft | 477 kts | 142° |
| 2026-04-22 09:10 | 45.30064 | 17.92682 | 39183 ft | 477 kts | 142° |
| 2026-04-22 09:10 | 45.24888 | 17.99076 | 39182 ft | 477 kts | 142° |
| 2026-04-22 09:11 | 45.19697 | 18.05471 | 39182 ft | 477 kts | 142° |
| 2026-04-22 09:11 | 45.14504 | 18.11852 | 39180 ft | 476 kts | 142° |
| 2026-04-22 09:12 | 45.09295 | 18.18239 | 39178 ft | 476 kts | 142° |
| 2026-04-22 09:12 | 45.04090 | 18.24581 | 39182 ft | 475 kts | 141° |
| 2026-04-22 09:13 | 44.98921 | 18.30895 | 39218 ft | 474 kts | 141° |
| 2026-04-22 09:13 | 44.93733 | 18.37218 | 39237 ft | 474 kts | 141° |
| 2026-04-22 09:14 | 44.88542 | 18.43518 | 39236 ft | 474 kts | 141° |
| 2026-04-22 09:14 | 44.83406 | 18.49702 | 39227 ft | 475 kts | 141° |
| 2026-04-22 09:15 | 44.78256 | 18.55902 | 39214 ft | 475 kts | 141° |
| 2026-04-22 09:15 | 44.73093 | 18.62118 | 39199 ft | 475 kts | 141° |
| 2026-04-22 09:16 | 44.68035 | 18.68207 | 39184 ft | 475 kts | 142° |
| 2026-04-22 09:16 | 44.62985 | 18.74294 | 39172 ft | 474 kts | 142° |
| 2026-04-22 09:17 | 44.57908 | 18.80381 | 39162 ft | 474 kts | 142° |
| 2026-04-22 09:17 | 44.52832 | 18.86443 | 39154 ft | 474 kts | 142° |
| 2026-04-22 09:18 | 44.47755 | 18.92488 | 39151 ft | 474 kts | 142° |
| 2026-04-22 09:18 | 44.42670 | 18.98528 | 39148 ft | 474 kts | 142° |
| 2026-04-22 09:19 | 44.37522 | 19.04629 | 39145 ft | 474 kts | 142° |
| 2026-04-22 09:19 | 44.32335 | 19.10761 | 39143 ft | 474 kts | 142° |
| 2026-04-22 09:20 | 44.27173 | 19.16848 | 39140 ft | 473 kts | 142° |
| 2026-04-22 09:20 | 44.22049 | 19.22877 | 39139 ft | 473 kts | 142° |
| 2026-04-22 09:21 | 44.16888 | 19.28935 | 39138 ft | 473 kts | 142° |
| 2026-04-22 09:21 | 44.11724 | 19.34982 | 39136 ft | 472 kts | 142° |
| 2026-04-22 09:22 | 44.06612 | 19.40954 | 39135 ft | 473 kts | 142° |
| 2026-04-22 09:22 | 44.01482 | 19.46933 | 39134 ft | 472 kts | 142° |
| 2026-04-22 09:23 | 43.96373 | 19.52877 | 39132 ft | 473 kts | 143° |
| 2026-04-22 09:23 | 43.91253 | 19.58815 | 39131 ft | 473 kts | 143° |
| 2026-04-22 09:24 | 43.86126 | 19.64727 | 39129 ft | 472 kts | 143° |
| 2026-04-22 09:24 | 43.81057 | 19.70577 | 39129 ft | 472 kts | 143° |
| 2026-04-22 09:25 | 43.76016 | 19.76398 | 39121 ft | 471 kts | 143° |
| 2026-04-22 09:25 | 43.70942 | 19.82236 | 39115 ft | 471 kts | 143° |
| 2026-04-22 09:26 | 43.65845 | 19.88084 | 39111 ft | 472 kts | 143° |
| 2026-04-22 09:26 | 43.60727 | 19.93941 | 39108 ft | 472 kts | 143° |
| 2026-04-22 09:27 | 43.55537 | 19.99865 | 39106 ft | 472 kts | 143° |
| 2026-04-22 09:27 | 43.50348 | 20.05777 | 39107 ft | 473 kts | 144° |
| 2026-04-22 09:28 | 43.45138 | 20.11698 | 39105 ft | 473 kts | 144° |
| 2026-04-22 09:28 | 43.39936 | 20.17597 | 39104 ft | 473 kts | 144° |
| 2026-04-22 09:29 | 43.34734 | 20.23481 | 39102 ft | 474 kts | 144° |
| 2026-04-22 09:29 | 43.29493 | 20.29396 | 39101 ft | 475 kts | 144° |
| 2026-04-22 09:30 | 43.24188 | 20.35371 | 39100 ft | 476 kts | 144° |
| 2026-04-22 09:30 | 43.18873 | 20.41342 | 39098 ft | 477 kts | 144° |
| 2026-04-22 09:31 | 43.13529 | 20.47335 | 39096 ft | 476 kts | 144° |
| 2026-04-22 09:31 | 43.08212 | 20.53284 | 39094 ft | 476 kts | 144° |
| 2026-04-22 09:32 | 43.02904 | 20.59207 | 39092 ft | 477 kts | 144° |
| 2026-04-22 09:32 | 42.97806 | 20.65330 | 39091 ft | 481 kts | 140° |
| 2026-04-22 09:33 | 42.92915 | 20.71762 | 39088 ft | 480 kts | 140° |
| 2026-04-22 09:33 | 42.88033 | 20.78162 | 39088 ft | 480 kts | 140° |
| 2026-04-22 09:34 | 42.83162 | 20.84481 | 39087 ft | 480 kts | 141° |
| 2026-04-22 09:34 | 42.78250 | 20.90848 | 39088 ft | 481 kts | 140° |
| 2026-04-22 09:35 | 42.70911 | 21.00352 | 39089 ft | 480 kts | 140° |
| 2026-04-22 09:35 | 42.65999 | 21.06697 | 39090 ft | 480 kts | 141° |
| 2026-04-22 09:36 | 42.61094 | 21.13021 | 39089 ft | 480 kts | 141° |
| 2026-04-22 09:36 | 42.56186 | 21.19332 | 39089 ft | 480 kts | 141° |
| 2026-04-22 09:37 | 42.51240 | 21.25678 | 39088 ft | 480 kts | 141° |
| 2026-04-22 09:37 | 42.46462 | 21.31796 | 39088 ft | 481 kts | 141° |
| 2026-04-22 09:38 | 42.41576 | 21.38040 | 39087 ft | 481 kts | 141° |
| 2026-04-22 09:38 | 42.36661 | 21.44311 | 39082 ft | 481 kts | 141° |
| 2026-04-22 09:39 | 42.31673 | 21.50656 | 39080 ft | 482 kts | 141° |
| 2026-04-22 09:39 | 42.26411 | 21.56605 | 39072 ft | 474 kts | 152° |
| 2026-04-22 09:40 | 42.20426 | 21.60492 | 38970 ft | 457 kts | 168° |
| 2026-04-22 09:40 | 42.17297 | 21.61589 | 38574 ft | 448 kts | 176° |
| 2026-04-22 09:40 | 42.14154 | 21.62131 | 38003 ft | 440 kts | 184° |
| 2026-04-22 09:41 | 42.11055 | 21.62297 | 37531 ft | 434 kts | 186° |
| 2026-04-22 09:41 | 42.07967 | 21.62401 | 37059 ft | 431 kts | 187° |
| 2026-04-22 09:41 | 42.04887 | 21.62514 | 36534 ft | 429 kts | 187° |
| 2026-04-22 09:41 | 42.01818 | 21.62648 | 35978 ft | 429 kts | 187° |
| 2026-04-22 09:42 | 41.98746 | 21.62794 | 35428 ft | 428 kts | 187° |
| 2026-04-22 09:42 | 41.95661 | 21.63175 | 34849 ft | 438 kts | 180° |
| 2026-04-22 09:42 | 41.92584 | 21.64239 | 34275 ft | 450 kts | 170° |
| 2026-04-22 09:42 | 41.89598 | 21.66042 | 33663 ft | 460 kts | 161° |
| 2026-04-22 09:43 | 41.86778 | 21.68239 | 32751 ft | 461 kts | 159° |
| 2026-04-22 09:43 | 41.83964 | 21.70532 | 31530 ft | 467 kts | 159° |
| 2026-04-22 09:43 | 41.81142 | 21.72841 | 30634 ft | 462 kts | 159° |
| 2026-04-22 09:43 | 41.78359 | 21.75107 | 29870 ft | 454 kts | 159° |
| 2026-04-22 09:44 | 41.75584 | 21.77341 | 29074 ft | 447 kts | 160° |
| 2026-04-22 09:44 | 41.72849 | 21.79523 | 28275 ft | 441 kts | 160° |
| 2026-04-22 09:44 | 41.70173 | 21.81648 | 27472 ft | 436 kts | 159° |
| 2026-04-22 09:44 | 41.67533 | 21.83740 | 26677 ft | 431 kts | 159° |
| 2026-04-22 09:45 | 41.64880 | 21.85841 | 25891 ft | 425 kts | 159° |
| 2026-04-22 09:45 | 41.62288 | 21.87891 | 25119 ft | 419 kts | 159° |
| 2026-04-22 09:45 | 41.59754 | 21.89891 | 24347 ft | 415 kts | 159° |
| 2026-04-22 09:45 | 41.57233 | 21.91882 | 23590 ft | 409 kts | 159° |
| 2026-04-22 09:46 | 41.54766 | 21.93825 | 22868 ft | 404 kts | 158° |
| 2026-04-22 09:46 | 41.52304 | 21.95764 | 22160 ft | 397 kts | 158° |
| 2026-04-22 09:46 | 41.49901 | 21.97652 | 21479 ft | 395 kts | 157° |
| 2026-04-22 09:46 | 41.47446 | 21.99579 | 21011 ft | 394 kts | 156° |
| 2026-04-22 09:47 | 41.45016 | 22.01491 | 20584 ft | 392 kts | 156° |
| 2026-04-22 09:47 | 41.42605 | 22.03387 | 20185 ft | 388 kts | 156° |
| 2026-04-22 09:47 | 41.40241 | 22.05250 | 20068 ft | 378 kts | 156° |
| 2026-04-22 09:47 | 41.37901 | 22.07090 | 20063 ft | 379 kts | 156° |
| 2026-04-22 09:48 | 41.35563 | 22.08921 | 20059 ft | 379 kts | 156° |
| 2026-04-22 09:48 | 41.33224 | 22.10752 | 20057 ft | 379 kts | 156° |
| 2026-04-22 09:48 | 41.30868 | 22.12596 | 20056 ft | 379 kts | 156° |
| 2026-04-22 09:48 | 41.28515 | 22.14437 | 20054 ft | 379 kts | 156° |
| 2026-04-22 09:49 | 41.26161 | 22.16275 | 20054 ft | 379 kts | 156° |
| 2026-04-22 09:49 | 41.23798 | 22.18119 | 20053 ft | 379 kts | 156° |
| 2026-04-22 09:49 | 41.21460 | 22.19942 | 20053 ft | 380 kts | 156° |
| 2026-04-22 09:49 | 41.19093 | 22.21788 | 20052 ft | 381 kts | 156° |
| 2026-04-22 09:50 | 41.16698 | 22.23578 | 20051 ft | 379 kts | 160° |
| 2026-04-22 09:50 | 41.14216 | 22.25100 | 20051 ft | 374 kts | 164° |
| 2026-04-22 09:50 | 41.11726 | 22.26452 | 20051 ft | 373 kts | 165° |
| 2026-04-22 09:50 | 41.09254 | 22.27772 | 20050 ft | 372 kts | 165° |
| 2026-04-22 09:51 | 41.06794 | 22.29085 | 19989 ft | 363 kts | 165° |
| 2026-04-22 09:51 | 41.04414 | 22.30363 | 19318 ft | 358 kts | 165° |
| 2026-04-22 09:51 | 41.02058 | 22.31617 | 18294 ft | 360 kts | 164° |
| 2026-04-22 09:51 | 40.99690 | 22.32881 | 17398 ft | 358 kts | 164° |
| 2026-04-22 09:52 | 40.97341 | 22.34141 | 16588 ft | 353 kts | 163° |
| 2026-04-22 09:52 | 40.95048 | 22.35374 | 15787 ft | 347 kts | 163° |
| 2026-04-22 09:52 | 40.92760 | 22.36603 | 14952 ft | 342 kts | 163° |
| 2026-04-22 09:52 | 40.90507 | 22.37812 | 14148 ft | 337 kts | 162° |
| 2026-04-22 09:53 | 40.88316 | 22.38984 | 13364 ft | 331 kts | 162° |
| 2026-04-22 09:53 | 40.86152 | 22.40138 | 12578 ft | 326 kts | 162° |
| 2026-04-22 09:53 | 40.84022 | 22.41272 | 11795 ft | 321 kts | 161° |
| 2026-04-22 09:53 | 40.81909 | 22.42398 | 11199 ft | 309 kts | 161° |
| 2026-04-22 09:54 | 40.79915 | 22.43465 | 10712 ft | 297 kts | 160° |
| 2026-04-22 09:54 | 40.77992 | 22.44600 | 10135 ft | 298 kts | 151° |
| 2026-04-22 09:54 | 40.76338 | 22.46351 | 9778 ft | 298 kts | 133° |
| 2026-04-22 09:54 | 40.75009 | 22.48510 | 9488 ft | 293 kts | 128° |
| 2026-04-22 09:55 | 40.73761 | 22.50728 | 9159 ft | 289 kts | 127° |
| 2026-04-22 09:55 | 40.72533 | 22.52918 | 8812 ft | 287 kts | 127° |
| 2026-04-22 09:55 | 40.71298 | 22.55091 | 8448 ft | 284 kts | 128° |
| 2026-04-22 09:55 | 40.70075 | 22.57219 | 8072 ft | 283 kts | 128° |
| 2026-04-22 09:56 | 40.68855 | 22.59331 | 7697 ft | 281 kts | 128° |
| 2026-04-22 09:56 | 40.67634 | 22.61437 | 7326 ft | 279 kts | 127° |
| 2026-04-22 09:56 | 40.66453 | 22.63561 | 6966 ft | 277 kts | 119° |
| 2026-04-22 09:56 | 40.65880 | 22.66015 | 6637 ft | 272 kts | 91° |
| 2026-04-22 09:57 | 40.66242 | 22.68483 | 6357 ft | 266 kts | 64° |
| 2026-04-22 09:57 | 40.67354 | 22.70472 | 6109 ft | 258 kts | 43° |
| 2026-04-22 09:57 | 40.68727 | 22.72055 | 5825 ft | 254 kts | 41° |
| 2026-04-22 09:57 | 40.70032 | 22.73678 | 5493 ft | 253 kts | 46° |
| 2026-04-22 09:58 | 40.71210 | 22.75427 | 5196 ft | 250 kts | 51° |
| 2026-04-22 09:58 | 40.72252 | 22.77267 | 4929 ft | 246 kts | 55° |
| 2026-04-22 09:58 | 40.73162 | 22.79154 | 4703 ft | 241 kts | 59° |
| 2026-04-22 09:58 | 40.73971 | 22.81107 | 4470 ft | 237 kts | 63° |
| 2026-04-22 09:59 | 40.74676 | 22.83089 | 4239 ft | 232 kts | 66° |
| 2026-04-22 09:59 | 40.75275 | 22.85065 | 4052 ft | 226 kts | 70° |
| 2026-04-22 09:59 | 40.75510 | 22.87061 | 3871 ft | 220 kts | 96° |
| 2026-04-22 09:59 | 40.74971 | 22.88917 | 3720 ft | 213 kts | 128° |
| 2026-04-22 10:00 | 40.73842 | 22.90105 | 3629 ft | 204 kts | 158° |
| 2026-04-22 10:00 | 40.72529 | 22.90620 | 3669 ft | 194 kts | 166° |
| 2026-04-22 10:00 | 40.71219 | 22.91011 | 3588 ft | 192 kts | 167° |
| 2026-04-22 10:00 | 40.69890 | 22.91402 | 3369 ft | 192 kts | 166° |
| 2026-04-22 10:01 | 40.68587 | 22.91800 | 3117 ft | 191 kts | 166° |
| 2026-04-22 10:01 | 40.67319 | 22.92198 | 2886 ft | 178 kts | 165° |
| 2026-04-22 10:01 | 40.66153 | 22.92569 | 2654 ft | 163 kts | 165° |
| 2026-04-22 10:01 | 40.65086 | 22.92911 | 2414 ft | 150 kts | 165° |
| 2026-04-22 10:02 | 40.64092 | 22.93226 | 2150 ft | 146 kts | 166° |
| 2026-04-22 10:02 | 40.63092 | 22.93535 | 1909 ft | 145 kts | 165° |
| 2026-04-22 10:02 | 40.62110 | 22.93842 | 1705 ft | 143 kts | 166° |
| 2026-04-22 10:02 | 40.61141 | 22.94149 | 1514 ft | 142 kts | 165° |
| 2026-04-22 10:03 | 40.60185 | 22.94472 | 1417 ft | 137 kts | 164° |
| 2026-04-22 10:03 | 40.59247 | 22.94780 | 1265 ft | 140 kts | 167° |
| 2026-04-22 10:03 | 40.58280 | 22.95074 | 1086 ft | 142 kts | 166° |
| 2026-04-22 10:03 | 40.57326 | 22.95394 | 871 ft | 140 kts | 165° |
| 2026-04-22 10:04 | 40.56377 | 22.95711 | 697 ft | 140 kts | 166° |
| 2026-04-22 10:04 | 40.55424 | 22.95997 | 527 ft | 139 kts | 166° |
| 2026-04-22 10:04 | 40.54480 | 22.96312 | 322 ft | 136 kts | 167° |
| 2026-04-22 10:04 | 40.53545 | 22.96592 | 164 ft | 140 kts | 166° |
| 2026-04-22 10:05 | 40.52604 | 22.96892 | 13 ft | 137 kts | 166° |
| 2026-04-22 10:05 | 40.51809 | 22.97145 | 9 ft | 93 kts | 167° |
| 2026-04-22 10:05 | 40.51306 | 22.97304 | 13 ft | 59 kts | 166° |
| 2026-04-22 10:05 | 40.51038 | 22.97389 | 18 ft | 22 kts | 166° |
| 2026-04-22 10:06 | 40.50967 | 22.97445 | 20 ft | 11 kts | 113° |
| 2026-04-22 10:06 | 40.50972 | 22.97539 | 20 ft | 11 kts | 53° |
| 2026-04-22 10:06 | 40.51042 | 22.97566 | 20 ft | 12 kts | 348° |
| 2026-04-22 10:06 | 40.51144 | 22.97531 | 19 ft | 21 kts | 345° |
| 2026-04-22 10:07 | 40.51334 | 22.97470 | 15 ft | 30 kts | 346° |
| 2026-04-22 10:07 | 40.51544 | 22.97404 | 11 ft | 30 kts | 346° |
| 2026-04-22 10:07 | 40.51750 | 22.97337 | 9 ft | 29 kts | 346° |
| 2026-04-22 10:07 | 40.51944 | 22.97276 | 9 ft | 28 kts | 347° |
| 2026-04-22 10:08 | 40.52131 | 22.97218 | 9 ft | 26 kts | 346° |
| 2026-04-22 10:08 | 40.52302 | 22.97163 | 9 ft | 20 kts | 346° |
| 2026-04-22 10:08 | 40.52382 | 22.97230 | 9 ft | 15 kts | 75° |
| 2026-04-22 10:08 | 40.52383 | 22.97357 | 9 ft | 13 kts | 127° |
| 2026-04-22 10:09 | 40.52320 | 22.97442 | 9 ft | 10 kts | 134° |
| 2026-04-22 10:09 | 40.52313 | 22.97492 | 9 ft | 6 kts | 48° |
| 2026-04-22 10:09 | 40.52339 | 22.97524 | 9 ft | 2 kts | 44° |
| 2026-04-22 10:09 | 40.52341 | 22.97525 | 9 ft | 0 kts | 44° |